sensor_id;sensor_type;location;lat;lon;timestamp;P1;durP1;ratioP1;P2;durP2;ratioP2
60312;SDS011;46158;52.850;6.970;2023-05-07T00:01:37;10.57;;;4.07;;
60312;SDS011;46158;52.850;6.970;2023-05-07T00:04:03;10.77;;;3.90;;
60312;SDS011;46158;52.850;6.970;2023-05-07T00:06:29;11.13;;;4.32;;
60312;SDS011;46158;52.850;6.970;2023-05-07T00:08:56;10.07;;;4.10;;
60312;SDS011;46158;52.850;6.970;2023-05-07T00:11:22;10.05;;;4.15;;
60312;SDS011;46158;52.850;6.970;2023-05-07T00:13:48;12.63;;;4.63;;
60312;SDS011;46158;52.850;6.970;2023-05-07T00:16:14;11.35;;;4.45;;
60312;SDS011;46158;52.850;6.970;2023-05-07T00:18:39;11.50;;;4.40;;
60312;SDS011;46158;52.850;6.970;2023-05-07T00:21:05;10.68;;;4.07;;
60312;SDS011;46158;52.850;6.970;2023-05-07T00:23:31;9.70;;;4.03;;
60312;SDS011;46158;52.850;6.970;2023-05-07T00:25:56;11.55;;;4.38;;
60312;SDS011;46158;52.850;6.970;2023-05-07T00:28:22;10.60;;;4.15;;
60312;SDS011;46158;52.850;6.970;2023-05-07T00:30:48;12.20;;;4.65;;
60312;SDS011;46158;52.850;6.970;2023-05-07T00:33:13;10.60;;;4.40;;
60312;SDS011;46158;52.850;6.970;2023-05-07T00:35:39;11.82;;;4.45;;
60312;SDS011;46158;52.850;6.970;2023-05-07T00:38:05;9.88;;;4.03;;
60312;SDS011;46158;52.850;6.970;2023-05-07T00:40:30;9.48;;;3.97;;
60312;SDS011;46158;52.850;6.970;2023-05-07T00:42:56;10.07;;;4.20;;
60312;SDS011;46158;52.850;6.970;2023-05-07T00:45:23;11.40;;;4.57;;
60312;SDS011;46158;52.850;6.970;2023-05-07T00:47:53;10.05;;;4.13;;
60312;SDS011;46158;52.850;6.970;2023-05-07T00:50:19;13.07;;;4.75;;
60312;SDS011;46158;52.850;6.970;2023-05-07T00:52:45;11.85;;;4.20;;
60312;SDS011;46158;52.850;6.970;2023-05-07T00:55:11;10.85;;;4.53;;
60312;SDS011;46158;52.850;6.970;2023-05-07T00:57:39;12.52;;;4.90;;
60312;SDS011;46158;52.850;6.970;2023-05-07T01:00:06;13.18;;;4.72;;
60312;SDS011;46158;52.850;6.970;2023-05-07T01:02:41;10.13;;;4.30;;
60312;SDS011;46158;52.850;6.970;2023-05-07T01:05:08;11.60;;;4.13;;
60312;SDS011;46158;52.850;6.970;2023-05-07T01:07:38;12.90;;;4.72;;
60312;SDS011;46158;52.850;6.970;2023-05-07T01:10:07;11.77;;;4.50;;
60312;SDS011;46158;52.850;6.970;2023-05-07T01:12:34;12.77;;;4.80;;
60312;SDS011;46158;52.850;6.970;2023-05-07T01:15:02;11.90;;;4.65;;
60312;SDS011;46158;52.850;6.970;2023-05-07T01:17:29;12.05;;;4.65;;
60312;SDS011;46158;52.850;6.970;2023-05-07T01:19:54;12.35;;;4.53;;
60312;SDS011;46158;52.850;6.970;2023-05-07T01:22:30;12.13;;;4.85;;
60312;SDS011;46158;52.850;6.970;2023-05-07T01:24:59;11.13;;;4.60;;
60312;SDS011;46158;52.850;6.970;2023-05-07T01:27:27;12.27;;;4.50;;
60312;SDS011;46158;52.850;6.970;2023-05-07T01:29:52;12.88;;;5.00;;
60312;SDS011;46158;52.850;6.970;2023-05-07T01:32:23;14.02;;;5.00;;
60312;SDS011;46158;52.850;6.970;2023-05-07T01:34:53;13.10;;;4.88;;
60312;SDS011;46158;52.850;6.970;2023-05-07T01:37:20;11.07;;;4.65;;
60312;SDS011;46158;52.850;6.970;2023-05-07T01:39:46;13.55;;;4.80;;
60312;SDS011;46158;52.850;6.970;2023-05-07T01:42:13;14.07;;;5.03;;
60312;SDS011;46158;52.850;6.970;2023-05-07T01:44:39;13.18;;;4.88;;
60312;SDS011;46158;52.850;6.970;2023-05-07T01:47:05;12.68;;;4.80;;
60312;SDS011;46158;52.850;6.970;2023-05-07T01:49:32;12.68;;;4.82;;
60312;SDS011;46158;52.850;6.970;2023-05-07T01:51:58;13.30;;;4.90;;
60312;SDS011;46158;52.850;6.970;2023-05-07T01:54:27;13.45;;;5.00;;
60312;SDS011;46158;52.850;6.970;2023-05-07T01:56:53;14.23;;;5.05;;
60312;SDS011;46158;52.850;6.970;2023-05-07T01:59:20;14.00;;;5.05;;
60312;SDS011;46158;52.850;6.970;2023-05-07T02:01:46;14.13;;;5.00;;
60312;SDS011;46158;52.850;6.970;2023-05-07T02:04:12;12.43;;;4.70;;
60312;SDS011;46158;52.850;6.970;2023-05-07T02:06:38;14.35;;;5.32;;
60312;SDS011;46158;52.850;6.970;2023-05-07T02:09:04;12.93;;;5.18;;
60312;SDS011;46158;52.850;6.970;2023-05-07T02:11:30;14.07;;;5.05;;
60312;SDS011;46158;52.850;6.970;2023-05-07T02:13:55;15.82;;;5.63;;
60312;SDS011;46158;52.850;6.970;2023-05-07T02:16:21;15.13;;;5.32;;
60312;SDS011;46158;52.850;6.970;2023-05-07T02:18:48;15.30;;;5.50;;
60312;SDS011;46158;52.850;6.970;2023-05-07T02:21:14;15.02;;;5.65;;
60312;SDS011;46158;52.850;6.970;2023-05-07T02:23:39;15.98;;;5.60;;
60312;SDS011;46158;52.850;6.970;2023-05-07T02:26:05;14.80;;;5.50;;
60312;SDS011;46158;52.850;6.970;2023-05-07T02:28:31;15.35;;;5.65;;
60312;SDS011;46158;52.850;6.970;2023-05-07T02:30:57;14.68;;;5.15;;
60312;SDS011;46158;52.850;6.970;2023-05-07T02:33:24;14.57;;;5.47;;
60312;SDS011;46158;52.850;6.970;2023-05-07T02:35:50;14.73;;;5.60;;
60312;SDS011;46158;52.850;6.970;2023-05-07T02:38:17;14.80;;;5.63;;
60312;SDS011;46158;52.850;6.970;2023-05-07T02:40:42;16.00;;;5.60;;
60312;SDS011;46158;52.850;6.970;2023-05-07T02:43:08;15.77;;;5.90;;
60312;SDS011;46158;52.850;6.970;2023-05-07T02:45:34;17.90;;;6.50;;
60312;SDS011;46158;52.850;6.970;2023-05-07T02:48:02;17.85;;;6.45;;
60312;SDS011;46158;52.850;6.970;2023-05-07T02:50:28;16.17;;;6.20;;
60312;SDS011;46158;52.850;6.970;2023-05-07T02:52:54;15.27;;;5.57;;
60312;SDS011;46158;52.850;6.970;2023-05-07T02:55:20;16.25;;;6.28;;
60312;SDS011;46158;52.850;6.970;2023-05-07T02:57:46;15.02;;;5.88;;
60312;SDS011;46158;52.850;6.970;2023-05-07T03:00:15;16.83;;;6.25;;
60312;SDS011;46158;52.850;6.970;2023-05-07T03:02:43;16.80;;;6.25;;
60312;SDS011;46158;52.850;6.970;2023-05-07T03:05:09;16.83;;;6.45;;
60312;SDS011;46158;52.850;6.970;2023-05-07T03:07:36;16.95;;;6.72;;
60312;SDS011;46158;52.850;6.970;2023-05-07T03:10:02;19.13;;;7.03;;
60312;SDS011;46158;52.850;6.970;2023-05-07T03:12:28;17.15;;;6.25;;
60312;SDS011;46158;52.850;6.970;2023-05-07T03:14:54;18.10;;;7.15;;
60312;SDS011;46158;52.850;6.970;2023-05-07T03:17:20;16.80;;;6.22;;
60312;SDS011;46158;52.850;6.970;2023-05-07T03:19:46;17.92;;;6.85;;
60312;SDS011;46158;52.850;6.970;2023-05-07T03:22:12;16.42;;;6.45;;
60312;SDS011;46158;52.850;6.970;2023-05-07T03:24:38;17.73;;;6.50;;
60312;SDS011;46158;52.850;6.970;2023-05-07T03:27:04;17.73;;;6.57;;
60312;SDS011;46158;52.850;6.970;2023-05-07T03:29:29;18.30;;;7.10;;
60312;SDS011;46158;52.850;6.970;2023-05-07T03:31:55;18.05;;;6.93;;
60312;SDS011;46158;52.850;6.970;2023-05-07T03:34:21;17.08;;;6.68;;
60312;SDS011;46158;52.850;6.970;2023-05-07T03:36:50;17.65;;;6.57;;
60312;SDS011;46158;52.850;6.970;2023-05-07T03:39:16;17.05;;;6.40;;
60312;SDS011;46158;52.850;6.970;2023-05-07T03:41:42;17.23;;;6.47;;
60312;SDS011;46158;52.850;6.970;2023-05-07T03:44:07;17.50;;;6.93;;
60312;SDS011;46158;52.850;6.970;2023-05-07T03:46:33;17.05;;;6.50;;
60312;SDS011;46158;52.850;6.970;2023-05-07T03:48:59;17.23;;;6.40;;
60312;SDS011;46158;52.850;6.970;2023-05-07T03:51:25;17.25;;;6.78;;
60312;SDS011;46158;52.850;6.970;2023-05-07T03:53:51;17.90;;;6.68;;
60312;SDS011;46158;52.850;6.970;2023-05-07T03:56:22;18.55;;;7.00;;
60312;SDS011;46158;52.850;6.970;2023-05-07T03:58:48;17.17;;;6.72;;
60312;SDS011;46158;52.850;6.970;2023-05-07T04:01:13;15.65;;;6.00;;
60312;SDS011;46158;52.850;6.970;2023-05-07T04:03:39;17.45;;;6.85;;
60312;SDS011;46158;52.850;6.970;2023-05-07T04:06:05;17.75;;;6.50;;
60312;SDS011;46158;52.850;6.970;2023-05-07T04:08:31;16.25;;;6.47;;
60312;SDS011;46158;52.850;6.970;2023-05-07T04:10:57;16.73;;;6.47;;
60312;SDS011;46158;52.850;6.970;2023-05-07T04:13:23;17.80;;;6.65;;
60312;SDS011;46158;52.850;6.970;2023-05-07T04:15:50;17.13;;;6.38;;
60312;SDS011;46158;52.850;6.970;2023-05-07T04:18:16;17.10;;;6.65;;
60312;SDS011;46158;52.850;6.970;2023-05-07T04:20:41;16.58;;;6.40;;
60312;SDS011;46158;52.850;6.970;2023-05-07T04:23:07;16.98;;;6.88;;
60312;SDS011;46158;52.850;6.970;2023-05-07T04:25:33;17.05;;;6.38;;
60312;SDS011;46158;52.850;6.970;2023-05-07T04:27:59;18.23;;;7.45;;
60312;SDS011;46158;52.850;6.970;2023-05-07T04:30:25;18.45;;;6.88;;
60312;SDS011;46158;52.850;6.970;2023-05-07T04:32:51;17.13;;;6.35;;
60312;SDS011;46158;52.850;6.970;2023-05-07T04:35:17;18.00;;;6.80;;
60312;SDS011;46158;52.850;6.970;2023-05-07T04:37:43;15.93;;;6.35;;
60312;SDS011;46158;52.850;6.970;2023-05-07T04:40:09;17.48;;;6.72;;
60312;SDS011;46158;52.850;6.970;2023-05-07T04:42:35;16.38;;;6.35;;
60312;SDS011;46158;52.850;6.970;2023-05-07T04:45:01;16.77;;;6.68;;
60312;SDS011;46158;52.850;6.970;2023-05-07T04:47:28;16.98;;;6.82;;
60312;SDS011;46158;52.850;6.970;2023-05-07T04:49:53;16.20;;;6.22;;
60312;SDS011;46158;52.850;6.970;2023-05-07T04:52:19;17.23;;;6.50;;
60312;SDS011;46158;52.850;6.970;2023-05-07T04:54:45;17.23;;;6.68;;
60312;SDS011;46158;52.850;6.970;2023-05-07T04:57:11;17.42;;;6.50;;
60312;SDS011;46158;52.850;6.970;2023-05-07T04:59:36;16.33;;;6.45;;
60312;SDS011;46158;52.850;6.970;2023-05-07T05:02:02;18.23;;;7.30;;
60312;SDS011;46158;52.850;6.970;2023-05-07T05:04:29;17.27;;;6.63;;
60312;SDS011;46158;52.850;6.970;2023-05-07T05:06:55;17.77;;;6.65;;
60312;SDS011;46158;52.850;6.970;2023-05-07T05:09:21;14.90;;;5.82;;
60312;SDS011;46158;52.850;6.970;2023-05-07T05:11:46;14.73;;;5.90;;
60312;SDS011;46158;52.850;6.970;2023-05-07T05:14:15;15.90;;;5.82;;
60312;SDS011;46158;52.850;6.970;2023-05-07T05:16:40;14.23;;;5.40;;
60312;SDS011;46158;52.850;6.970;2023-05-07T05:19:06;15.43;;;5.57;;
60312;SDS011;46158;52.850;6.970;2023-05-07T05:21:32;14.32;;;5.32;;
60312;SDS011;46158;52.850;6.970;2023-05-07T05:23:57;13.80;;;5.25;;
60312;SDS011;46158;52.850;6.970;2023-05-07T05:26:23;14.75;;;5.22;;
60312;SDS011;46158;52.850;6.970;2023-05-07T05:28:49;13.73;;;5.18;;
60312;SDS011;46158;52.850;6.970;2023-05-07T05:31:15;14.48;;;5.25;;
60312;SDS011;46158;52.850;6.970;2023-05-07T05:33:41;14.57;;;5.28;;
60312;SDS011;46158;52.850;6.970;2023-05-07T05:36:09;14.05;;;5.30;;
60312;SDS011;46158;52.850;6.970;2023-05-07T05:38:35;12.77;;;5.07;;
60312;SDS011;46158;52.850;6.970;2023-05-07T05:41:01;13.60;;;5.05;;
60312;SDS011;46158;52.850;6.970;2023-05-07T05:43:27;12.65;;;5.22;;
60312;SDS011;46158;52.850;6.970;2023-05-07T05:45:53;15.13;;;5.30;;
60312;SDS011;46158;52.850;6.970;2023-05-07T05:48:20;13.70;;;5.10;;
60312;SDS011;46158;52.850;6.970;2023-05-07T05:50:46;13.45;;;4.68;;
60312;SDS011;46158;52.850;6.970;2023-05-07T05:53:14;12.88;;;5.20;;
60312;SDS011;46158;52.850;6.970;2023-05-07T05:55:41;13.70;;;4.93;;
60312;SDS011;46158;52.850;6.970;2023-05-07T05:58:07;13.02;;;5.13;;
60312;SDS011;46158;52.850;6.970;2023-05-07T06:00:33;14.52;;;5.15;;
60312;SDS011;46158;52.850;6.970;2023-05-07T06:02:59;12.75;;;4.68;;
60312;SDS011;46158;52.850;6.970;2023-05-07T06:05:25;14.02;;;5.00;;
60312;SDS011;46158;52.850;6.970;2023-05-07T06:07:50;13.38;;;5.05;;
60312;SDS011;46158;52.850;6.970;2023-05-07T06:10:16;11.75;;;4.93;;
60312;SDS011;46158;52.850;6.970;2023-05-07T06:12:42;14.25;;;5.03;;
60312;SDS011;46158;52.850;6.970;2023-05-07T06:15:07;11.57;;;4.43;;
60312;SDS011;46158;52.850;6.970;2023-05-07T06:17:34;12.50;;;4.70;;
60312;SDS011;46158;52.850;6.970;2023-05-07T06:19:59;12.98;;;4.97;;
60312;SDS011;46158;52.850;6.970;2023-05-07T06:22:25;14.02;;;5.20;;
60312;SDS011;46158;52.850;6.970;2023-05-07T06:24:51;11.43;;;4.53;;
60312;SDS011;46158;52.850;6.970;2023-05-07T06:27:16;16.77;;;6.25;;
60312;SDS011;46158;52.850;6.970;2023-05-07T06:29:42;15.85;;;5.65;;
60312;SDS011;46158;52.850;6.970;2023-05-07T06:32:12;16.80;;;5.72;;
60312;SDS011;46158;52.850;6.970;2023-05-07T06:34:39;14.15;;;5.28;;
60312;SDS011;46158;52.850;6.970;2023-05-07T06:37:05;16.48;;;5.78;;
60312;SDS011;46158;52.850;6.970;2023-05-07T06:39:32;15.55;;;5.88;;
60312;SDS011;46158;52.850;6.970;2023-05-07T06:41:59;16.98;;;6.47;;
60312;SDS011;46158;52.850;6.970;2023-05-07T06:44:26;16.73;;;6.05;;
60312;SDS011;46158;52.850;6.970;2023-05-07T06:46:52;15.38;;;5.82;;
60312;SDS011;46158;52.850;6.970;2023-05-07T06:49:17;16.80;;;6.20;;
60312;SDS011;46158;52.850;6.970;2023-05-07T06:51:43;17.30;;;6.18;;
60312;SDS011;46158;52.850;6.970;2023-05-07T06:54:09;15.52;;;6.03;;
60312;SDS011;46158;52.850;6.970;2023-05-07T06:56:34;15.93;;;5.93;;
60312;SDS011;46158;52.850;6.970;2023-05-07T06:59:01;15.02;;;6.07;;
60312;SDS011;46158;52.850;6.970;2023-05-07T07:01:27;16.23;;;6.20;;
60312;SDS011;46158;52.850;6.970;2023-05-07T07:03:53;19.50;;;5.97;;
60312;SDS011;46158;52.850;6.970;2023-05-07T07:06:20;15.20;;;5.55;;
60312;SDS011;46158;52.850;6.970;2023-05-07T07:08:46;17.00;;;6.32;;
60312;SDS011;46158;52.850;6.970;2023-05-07T07:11:12;17.00;;;6.20;;
60312;SDS011;46158;52.850;6.970;2023-05-07T07:13:38;16.15;;;5.75;;
60312;SDS011;46158;52.850;6.970;2023-05-07T07:16:05;15.30;;;5.50;;
60312;SDS011;46158;52.850;6.970;2023-05-07T07:18:31;17.10;;;6.70;;
60312;SDS011;46158;52.850;6.970;2023-05-07T07:20:56;15.48;;;5.88;;
60312;SDS011;46158;52.850;6.970;2023-05-07T07:23:22;17.65;;;6.97;;
60312;SDS011;46158;52.850;6.970;2023-05-07T07:25:48;16.70;;;6.35;;
60312;SDS011;46158;52.850;6.970;2023-05-07T07:28:14;16.88;;;6.25;;
60312;SDS011;46158;52.850;6.970;2023-05-07T07:30:39;16.85;;;6.20;;
60312;SDS011;46158;52.850;6.970;2023-05-07T07:33:05;17.63;;;6.32;;
60312;SDS011;46158;52.850;6.970;2023-05-07T07:35:31;16.83;;;7.10;;
60312;SDS011;46158;52.850;6.970;2023-05-07T07:37:57;17.15;;;6.22;;
60312;SDS011;46158;52.850;6.970;2023-05-07T07:40:23;17.05;;;6.05;;
60312;SDS011;46158;52.850;6.970;2023-05-07T07:42:50;16.48;;;6.50;;
60312;SDS011;46158;52.850;6.970;2023-05-07T07:45:16;15.70;;;5.95;;
60312;SDS011;46158;52.850;6.970;2023-05-07T07:47:41;16.20;;;6.20;;
60312;SDS011;46158;52.850;6.970;2023-05-07T07:50:07;17.55;;;6.15;;
60312;SDS011;46158;52.850;6.970;2023-05-07T07:52:33;18.20;;;6.60;;
60312;SDS011;46158;52.850;6.970;2023-05-07T07:54:59;17.17;;;6.63;;
60312;SDS011;46158;52.850;6.970;2023-05-07T07:57:25;16.15;;;5.88;;
60312;SDS011;46158;52.850;6.970;2023-05-07T07:59:51;17.05;;;6.68;;
60312;SDS011;46158;52.850;6.970;2023-05-07T08:02:16;17.25;;;6.63;;
60312;SDS011;46158;52.850;6.970;2023-05-07T08:04:42;17.00;;;6.63;;
60312;SDS011;46158;52.850;6.970;2023-05-07T08:07:10;19.55;;;7.60;;
60312;SDS011;46158;52.850;6.970;2023-05-07T08:09:37;19.38;;;6.68;;
60312;SDS011;46158;52.850;6.970;2023-05-07T08:12:03;17.80;;;6.60;;
60312;SDS011;46158;52.850;6.970;2023-05-07T08:14:30;18.25;;;6.95;;
60312;SDS011;46158;52.850;6.970;2023-05-07T08:16:55;19.40;;;7.45;;
60312;SDS011;46158;52.850;6.970;2023-05-07T08:19:21;19.55;;;6.45;;
60312;SDS011;46158;52.850;6.970;2023-05-07T08:21:47;23.38;;;9.02;;
60312;SDS011;46158;52.850;6.970;2023-05-07T08:24:15;21.20;;;8.52;;
60312;SDS011;46158;52.850;6.970;2023-05-07T08:26:41;20.30;;;7.50;;
60312;SDS011;46158;52.850;6.970;2023-05-07T08:29:07;19.13;;;7.35;;
60312;SDS011;46158;52.850;6.970;2023-05-07T08:31:32;20.23;;;7.20;;
60312;SDS011;46158;52.850;6.970;2023-05-07T08:33:58;18.42;;;6.57;;
60312;SDS011;46158;52.850;6.970;2023-05-07T08:36:25;18.40;;;7.05;;
60312;SDS011;46158;52.850;6.970;2023-05-07T08:38:50;19.10;;;6.90;;
60312;SDS011;46158;52.850;6.970;2023-05-07T08:41:17;18.42;;;6.90;;
60312;SDS011;46158;52.850;6.970;2023-05-07T08:43:44;17.38;;;6.53;;
60312;SDS011;46158;52.850;6.970;2023-05-07T08:46:23;17.90;;;6.25;;
60312;SDS011;46158;52.850;6.970;2023-05-07T08:48:51;17.40;;;6.45;;
60312;SDS011;46158;52.850;6.970;2023-05-07T08:51:17;18.45;;;7.18;;
60312;SDS011;46158;52.850;6.970;2023-05-07T08:53:45;17.52;;;6.70;;
60312;SDS011;46158;52.850;6.970;2023-05-07T08:56:13;18.83;;;6.55;;
60312;SDS011;46158;52.850;6.970;2023-05-07T08:58:43;17.23;;;6.22;;
60312;SDS011;46158;52.850;6.970;2023-05-07T09:01:10;17.98;;;7.25;;
60312;SDS011;46158;52.850;6.970;2023-05-07T09:03:39;16.98;;;6.35;;
60312;SDS011;46158;52.850;6.970;2023-05-07T09:06:05;18.77;;;6.53;;
60312;SDS011;46158;52.850;6.970;2023-05-07T09:08:32;17.48;;;6.60;;
60312;SDS011;46158;52.850;6.970;2023-05-07T09:10:59;17.67;;;6.60;;
60312;SDS011;46158;52.850;6.970;2023-05-07T09:13:25;17.00;;;6.65;;
60312;SDS011;46158;52.850;6.970;2023-05-07T09:15:52;18.88;;;6.82;;
60312;SDS011;46158;52.850;6.970;2023-05-07T09:18:18;17.13;;;6.53;;
60312;SDS011;46158;52.850;6.970;2023-05-07T09:20:43;18.65;;;7.13;;
60312;SDS011;46158;52.850;6.970;2023-05-07T09:23:12;17.23;;;6.97;;
60312;SDS011;46158;52.850;6.970;2023-05-07T09:25:38;18.52;;;6.90;;
60312;SDS011;46158;52.850;6.970;2023-05-07T09:28:04;17.38;;;6.30;;
60312;SDS011;46158;52.850;6.970;2023-05-07T09:30:32;18.05;;;6.63;;
60312;SDS011;46158;52.850;6.970;2023-05-07T09:32:59;17.63;;;6.75;;
60312;SDS011;46158;52.850;6.970;2023-05-07T09:35:26;18.55;;;6.82;;
60312;SDS011;46158;52.850;6.970;2023-05-07T09:37:59;17.10;;;6.38;;
60312;SDS011;46158;52.850;6.970;2023-05-07T09:40:27;18.35;;;6.60;;
60312;SDS011;46158;52.850;6.970;2023-05-07T09:42:54;17.30;;;6.20;;
60312;SDS011;46158;52.850;6.970;2023-05-07T09:45:27;15.68;;;5.80;;
60312;SDS011;46158;52.850;6.970;2023-05-07T09:47:54;14.82;;;5.55;;
60312;SDS011;46158;52.850;6.970;2023-05-07T09:50:32;13.75;;;5.15;;
60312;SDS011;46158;52.850;6.970;2023-05-07T09:53:07;16.63;;;6.13;;
60312;SDS011;46158;52.850;6.970;2023-05-07T09:55:35;15.73;;;5.95;;
60312;SDS011;46158;52.850;6.970;2023-05-07T09:58:02;14.50;;;5.55;;
60312;SDS011;46158;52.850;6.970;2023-05-07T10:00:31;16.37;;;5.93;;
60312;SDS011;46158;52.850;6.970;2023-05-07T10:02:57;15.98;;;6.15;;
60312;SDS011;46158;52.850;6.970;2023-05-07T10:05:25;17.25;;;6.45;;
60312;SDS011;46158;52.850;6.970;2023-05-07T10:07:51;17.00;;;6.40;;
60312;SDS011;46158;52.850;6.970;2023-05-07T10:10:18;16.55;;;6.43;;
60312;SDS011;46158;52.850;6.970;2023-05-07T10:12:44;16.63;;;6.47;;
60312;SDS011;46158;52.850;6.970;2023-05-07T10:15:10;15.75;;;6.15;;
60312;SDS011;46158;52.850;6.970;2023-05-07T10:17:37;16.65;;;6.18;;
60312;SDS011;46158;52.850;6.970;2023-05-07T10:20:04;16.40;;;6.28;;
60312;SDS011;46158;52.850;6.970;2023-05-07T10:22:32;17.10;;;6.57;;
60312;SDS011;46158;52.850;6.970;2023-05-07T10:25:16;15.50;;;6.00;;
60312;SDS011;46158;52.850;6.970;2023-05-07T10:27:46;17.50;;;6.50;;
60312;SDS011;46158;52.850;6.970;2023-05-07T10:32:51;14.75;;;5.38;;
60312;SDS011;46158;52.850;6.970;2023-05-07T10:35:26;14.32;;;5.30;;
60312;SDS011;46158;52.850;6.970;2023-05-07T10:37:56;14.90;;;5.30;;
60312;SDS011;46158;52.850;6.970;2023-05-07T10:40:22;15.18;;;5.40;;
60312;SDS011;46158;52.850;6.970;2023-05-07T10:42:58;15.25;;;5.75;;
60312;SDS011;46158;52.850;6.970;2023-05-07T10:45:25;13.45;;;5.13;;
60312;SDS011;46158;52.850;6.970;2023-05-07T10:48:08;14.77;;;5.72;;
60312;SDS011;46158;52.850;6.970;2023-05-07T10:50:37;17.20;;;6.38;;
60312;SDS011;46158;52.850;6.970;2023-05-07T10:55:49;17.65;;;6.40;;
60312;SDS011;46158;52.850;6.970;2023-05-07T10:58:23;16.13;;;6.45;;
60312;SDS011;46158;52.850;6.970;2023-05-07T11:00:50;16.23;;;6.00;;
60312;SDS011;46158;52.850;6.970;2023-05-07T11:03:21;16.77;;;6.45;;
60312;SDS011;46158;52.850;6.970;2023-05-07T11:05:47;16.17;;;6.28;;
60312;SDS011;46158;52.850;6.970;2023-05-07T11:11:47;15.60;;;6.13;;
60312;SDS011;46158;52.850;6.970;2023-05-07T11:17:07;14.05;;;5.22;;
60312;SDS011;46158;52.850;6.970;2023-05-07T11:19:52;13.65;;;5.32;;
60312;SDS011;46158;52.850;6.970;2023-05-07T11:22:52;15.23;;;6.05;;
60312;SDS011;46158;52.850;6.970;2023-05-07T11:25:17;17.30;;;6.50;;
60312;SDS011;46158;52.850;6.970;2023-05-07T11:27:46;17.50;;;7.10;;
60312;SDS011;46158;52.850;6.970;2023-05-07T11:30:19;15.95;;;6.50;;
60312;SDS011;46158;52.850;6.970;2023-05-07T11:32:46;16.02;;;6.30;;
60312;SDS011;46158;52.850;6.970;2023-05-07T11:35:13;16.13;;;6.15;;
60312;SDS011;46158;52.850;6.970;2023-05-07T11:37:40;18.05;;;6.80;;
60312;SDS011;46158;52.850;6.970;2023-05-07T11:40:07;17.00;;;7.22;;
60312;SDS011;46158;52.850;6.970;2023-05-07T11:42:39;17.52;;;6.68;;
60312;SDS011;46158;52.850;6.970;2023-05-07T11:45:06;15.27;;;6.00;;
60312;SDS011;46158;52.850;6.970;2023-05-07T11:47:33;16.65;;;6.00;;
60312;SDS011;46158;52.850;6.970;2023-05-07T11:50:06;16.58;;;5.50;;
60312;SDS011;46158;52.850;6.970;2023-05-07T11:52:33;15.77;;;5.50;;
60312;SDS011;46158;52.850;6.970;2023-05-07T11:54:59;16.15;;;5.90;;
60312;SDS011;46158;52.850;6.970;2023-05-07T11:57:26;14.27;;;5.45;;
60312;SDS011;46158;52.850;6.970;2023-05-07T11:59:56;15.52;;;6.13;;
60312;SDS011;46158;52.850;6.970;2023-05-07T12:02:22;17.27;;;7.18;;
60312;SDS011;46158;52.850;6.970;2023-05-07T12:04:50;19.05;;;7.75;;
60312;SDS011;46158;52.850;6.970;2023-05-07T12:07:16;17.83;;;6.85;;
60312;SDS011;46158;52.850;6.970;2023-05-07T12:09:44;15.75;;;6.10;;
60312;SDS011;46158;52.850;6.970;2023-05-07T12:12:11;16.35;;;6.38;;
60312;SDS011;46158;52.850;6.970;2023-05-07T12:14:40;17.77;;;6.72;;
60312;SDS011;46158;52.850;6.970;2023-05-07T12:17:07;15.38;;;6.35;;
60312;SDS011;46158;52.850;6.970;2023-05-07T12:19:34;18.52;;;6.63;;
60312;SDS011;46158;52.850;6.970;2023-05-07T12:22:02;15.73;;;6.28;;
60312;SDS011;46158;52.850;6.970;2023-05-07T12:24:28;16.98;;;6.60;;
60312;SDS011;46158;52.850;6.970;2023-05-07T12:27:06;16.52;;;6.32;;
60312;SDS011;46158;52.850;6.970;2023-05-07T12:29:32;15.18;;;6.20;;
60312;SDS011;46158;52.850;6.970;2023-05-07T12:31:57;16.38;;;6.18;;
60312;SDS011;46158;52.850;6.970;2023-05-07T12:34:23;17.65;;;5.78;;
60312;SDS011;46158;52.850;6.970;2023-05-07T12:36:49;14.57;;;5.50;;
60312;SDS011;46158;52.850;6.970;2023-05-07T12:39:15;15.35;;;5.60;;
60312;SDS011;46158;52.850;6.970;2023-05-07T12:41:56;14.85;;;5.63;;
60312;SDS011;46158;52.850;6.970;2023-05-07T12:44:24;17.50;;;6.30;;
60312;SDS011;46158;52.850;6.970;2023-05-07T12:46:53;18.52;;;7.00;;
60312;SDS011;46158;52.850;6.970;2023-05-07T12:49:19;15.85;;;6.28;;
60312;SDS011;46158;52.850;6.970;2023-05-07T12:51:48;18.98;;;6.93;;
60312;SDS011;46158;52.850;6.970;2023-05-07T12:57:06;17.60;;;7.03;;
60312;SDS011;46158;52.850;6.970;2023-05-07T12:59:38;15.55;;;5.93;;
60312;SDS011;46158;52.850;6.970;2023-05-07T13:02:06;19.20;;;8.38;;
60312;SDS011;46158;52.850;6.970;2023-05-07T13:04:32;17.60;;;6.90;;
60312;SDS011;46158;52.850;6.970;2023-05-07T13:06:58;17.95;;;6.90;;
60312;SDS011;46158;52.850;6.970;2023-05-07T13:09:24;15.57;;;6.10;;
60312;SDS011;46158;52.850;6.970;2023-05-07T13:11:50;16.40;;;6.00;;
60312;SDS011;46158;52.850;6.970;2023-05-07T13:14:16;13.45;;;5.32;;
60312;SDS011;46158;52.850;6.970;2023-05-07T13:16:42;18.70;;;6.30;;
60312;SDS011;46158;52.850;6.970;2023-05-07T13:19:08;16.48;;;5.28;;
60312;SDS011;46158;52.850;6.970;2023-05-07T13:21:33;16.90;;;5.38;;
60312;SDS011;46158;52.850;6.970;2023-05-07T13:23:59;16.08;;;5.40;;
60312;SDS011;46158;52.850;6.970;2023-05-07T13:26:25;16.20;;;5.60;;
60312;SDS011;46158;52.850;6.970;2023-05-07T13:28:54;17.98;;;6.03;;
60312;SDS011;46158;52.850;6.970;2023-05-07T13:31:20;17.67;;;6.72;;
60312;SDS011;46158;52.850;6.970;2023-05-07T13:33:46;20.10;;;9.02;;
60312;SDS011;46158;52.850;6.970;2023-05-07T13:36:12;19.25;;;7.65;;
60312;SDS011;46158;52.850;6.970;2023-05-07T13:38:40;17.08;;;6.28;;
60312;SDS011;46158;52.850;6.970;2023-05-07T13:41:06;17.55;;;6.20;;
60312;SDS011;46158;52.850;6.970;2023-05-07T13:43:32;18.48;;;6.40;;
60312;SDS011;46158;52.850;6.970;2023-05-07T13:45:58;18.10;;;6.00;;
60312;SDS011;46158;52.850;6.970;2023-05-07T13:48:25;14.60;;;5.50;;
60312;SDS011;46158;52.850;6.970;2023-05-07T13:50:51;17.00;;;5.90;;
60312;SDS011;46158;52.850;6.970;2023-05-07T13:53:17;15.60;;;5.97;;
60312;SDS011;46158;52.850;6.970;2023-05-07T13:55:43;17.02;;;5.85;;
60312;SDS011;46158;52.850;6.970;2023-05-07T13:58:10;19.42;;;5.80;;
60312;SDS011;46158;52.850;6.970;2023-05-07T14:00:36;14.77;;;5.03;;
60312;SDS011;46158;52.850;6.970;2023-05-07T14:03:02;15.15;;;5.32;;
60312;SDS011;46158;52.850;6.970;2023-05-07T14:05:29;17.10;;;5.15;;
60312;SDS011;46158;52.850;6.970;2023-05-07T14:07:58;12.95;;;5.07;;
60312;SDS011;46158;52.850;6.970;2023-05-07T14:10:24;16.25;;;5.40;;
60312;SDS011;46158;52.850;6.970;2023-05-07T14:12:50;15.90;;;5.65;;
60312;SDS011;46158;52.850;6.970;2023-05-07T14:15:17;15.70;;;6.00;;
60312;SDS011;46158;52.850;6.970;2023-05-07T14:17:43;17.70;;;6.38;;
60312;SDS011;46158;52.850;6.970;2023-05-07T14:20:10;14.77;;;5.05;;
60312;SDS011;46158;52.850;6.970;2023-05-07T14:22:36;19.77;;;8.38;;
60312;SDS011;46158;52.850;6.970;2023-05-07T14:25:02;18.33;;;7.90;;
60312;SDS011;46158;52.850;6.970;2023-05-07T14:27:28;18.58;;;7.00;;
60312;SDS011;46158;52.850;6.970;2023-05-07T14:29:54;16.40;;;6.30;;
60312;SDS011;46158;52.850;6.970;2023-05-07T14:32:20;17.17;;;6.18;;
60312;SDS011;46158;52.850;6.970;2023-05-07T14:34:46;16.75;;;5.63;;
60312;SDS011;46158;52.850;6.970;2023-05-07T14:37:12;14.50;;;5.07;;
60312;SDS011;46158;52.850;6.970;2023-05-07T14:39:38;13.98;;;5.18;;
60312;SDS011;46158;52.850;6.970;2023-05-07T14:42:04;14.30;;;5.30;;
60312;SDS011;46158;52.850;6.970;2023-05-07T14:44:30;17.05;;;5.80;;
60312;SDS011;46158;52.850;6.970;2023-05-07T14:46:56;16.08;;;5.25;;
60312;SDS011;46158;52.850;6.970;2023-05-07T14:49:22;13.32;;;4.50;;